Avery, Iowa
Current Conditions -  °F | °C
As of 9:27 AM on Wednesday 26 Nov 2014 (Local Time) from KOTM Reporting Station
Moderate Snow Moderate Snow  
Wind Chill: -8°   Ceiling: 800
Heat Index: -2°   Visibility: 0.5mi
Dew Point: -3°   Wind: 14mph
Humidity: 89%   Direction: 120°ESE
Pressure: 29.93"   Gusts: NA
Location:  41.0299°N, 92.7795°W
Report Text: KOTM 261527Z AUTO 12012KT 1/2SM SN FZFG BKN008 OVC017 M02/M03 A2993 RMK AO2 P0001 T10171033
Loading
Personal Weather Stations






























Interactive Weather Map New forecast layout! Learn more

10-Day Weather Forecast

Advertisements
Track Severe Weather on mobile